VNKT METAR

Available data for VNKT from the past hour
KATHMANDU INTL A
Metar
VNKT 212250Z 13003KT 6000 FEEW0120 14/11 Q1013 NOSIG
TAF
TAF VNKT 211700Z 2118/2218 VRB02KT 6000 FEW015 BECMG 2200/2202 4000 BR FEW015 PROB30 2201/2203 2000 BR BECMG 2204/2205 11003KT 6000 FEW015 BECMG 2207/2208 31010KT 8000 FEW020 SCT030 BECMG 2213/2214 VRB02KT 6000 FEW020

WARNING: the data listed  above is for informational purposes only and should be confirmed from official sources. Data presented here on this page are fetched from Aviation weather data from NOAA’s Aviation Digital Data Service.

How to see the Details of METAR Reading.

Click on the Triangle beside of the Word METAR.(Refer to Fig.1)

VNKTmetar